Time;durP1;ratioP1;P1;durP2;ratioP2;P2;SDS_P1;SDS_P2;PMS_P1;PMS_P2;Temp;Humidity;BMP_temperature;BMP_pressure;BME280_temperature;BME280_humidity;BME280_pressure;Samples;Min_cycle;Max_cycle;Signal;HPM_P1;HPM_P2
2023/06/23 00:02:33;;;;;;;24.25;18.85;;;26.30;93.80;;;;;;5091531;28;20055;-69
2023/06/23 00:05:37;;;;;;;33.40;18.88;;;26.30;93.60;;;;;;5091713;28;20047;-69
2023/06/23 00:08:42;;;;;;;26.60;17.83;;;26.30;93.60;;;;;;5091479;28;20047;-69
2023/06/23 00:11:45;;;;;;;31.65;17.83;;;26.20;93.70;;;;;;5091700;28;20055;-69
2023/06/23 00:14:49;;;;;;;28.05;18.55;;;26.10;93.70;;;;;;5091516;28;20399;-69
2023/06/23 00:17:54;;;;;;;24.95;18.10;;;26.10;93.90;;;;;;5091559;28;20039;-69
2023/06/23 00:20:58;;;;;;;32.53;18.75;;;26.10;93.90;;;;;;5090732;28;20050;-69
2023/06/23 00:24:02;;;;;;;37.08;18.20;;;26.20;93.90;;;;;;5091814;28;20059;-69
2023/06/23 00:27:06;;;;;;;23.00;17.15;;;26.20;93.90;;;;;;5091603;28;20047;-70
2023/06/23 00:30:11;;;;;;;30.48;18.17;;;26.20;93.70;;;;;;5091614;28;20047;-70
2023/06/23 00:33:15;;;;;;;26.85;17.88;;;26.20;93.60;;;;;;5090875;28;20047;-70
2023/06/23 00:36:20;;;;;;;28.15;19.52;;;26.30;93.70;;;;;;5091345;28;20051;-69
2023/06/23 00:39:24;;;;;;;24.77;18.25;;;26.30;93.40;;;;;;5090387;28;20174;-70
2023/06/23 00:42:28;;;;;;;28.25;18.73;;;26.30;93.40;;;;;;5090312;28;20510;-69
2023/06/23 00:45:32;;;;;;;26.73;18.25;;;26.30;93.40;;;;;;5090394;28;20498;-70
2023/06/23 00:48:37;;;;;;;35.40;19.90;;;26.30;93.50;;;;;;5091005;28;20043;-69
2023/06/23 00:51:42;;;;;;;25.50;18.58;;;26.30;93.50;;;;;;5091077;28;20058;-70
2023/06/23 00:54:45;;;;;;;26.58;17.15;;;26.30;93.20;;;;;;5089951;28;20047;-69
2023/06/23 00:57:50;;;;;;;31.58;17.55;;;26.30;93.10;;;;;;5090220;28;20042;-70
2023/06/23 01:00:55;;;;;;;28.45;16.80;;;26.30;92.90;;;;;;5090934;28;20039;-69
2023/06/23 01:04:01;;;;;;;23.83;15.57;;;26.20;92.70;;;;;;5091040;28;20047;-70
2023/06/23 01:07:31;;;;;;;24.95;14.77;;;26.20;92.80;;;;;;5091090;28;20051;-70
2023/06/23 01:10:44;;;;;;;26.10;15.02;;;26.10;92.50;;;;;;5090909;28;20051;-69
2023/06/23 01:14:31;;;;;;;32.85;14.15;;;26.10;92.20;;;;;;5090878;28;20055;-69
2023/06/23 01:17:57;;;;;;;27.30;13.60;;;26.10;92.20;;;;;;5088356;28;20502;-69
2023/06/23 01:21:05;;;;;;;22.95;14.25;;;26.10;92.20;;;;;;5090790;28;20047;-69
2023/06/23 01:24:29;;;;;;;26.13;14.57;;;26.10;92.10;;;;;;5089892;28;20511;-70
2023/06/23 01:28:10;;;;;;;30.13;16.65;;;26.20;92.20;;;;;;5090781;28;20404;-69
2023/06/23 01:31:47;;;;;;;38.10;17.27;;;26.20;92.40;;;;;;5090583;28;20043;-70
2023/06/23 01:34:56;;;;;;;33.22;17.30;;;26.30;92.50;;;;;;5089998;28;20412;-70
2023/06/23 01:38:24;;;;;;;25.40;15.82;;;26.30;92.70;;;;;;5090565;28;20043;-69
2023/06/23 01:41:41;;;;;;;29.58;14.95;;;26.30;92.80;;;;;;5089644;28;20039;-70
2023/06/23 01:44:50;;;;;;;27.80;15.35;;;26.20;92.50;;;;;;5089747;28;20042;-69
2023/06/23 01:48:01;;;;;;;29.27;14.63;;;26.10;92.40;;;;;;5090703;28;20175;-69
2023/06/23 01:51:06;;;;;;;27.73;16.45;;;26.00;92.60;;;;;;5090665;28;20035;-69
2023/06/23 01:54:12;;;;;;;29.85;14.80;;;25.80;92.70;;;;;;5089475;28;20460;-69
2023/06/23 01:57:19;;;;;;;30.55;15.10;;;25.50;93.10;;;;;;5090498;28;20039;-69
2023/06/23 02:00:24;;;;;;;26.48;13.95;;;25.50;93.00;;;;;;5089379;28;20050;-69
2023/06/23 02:03:30;;;;;;;25.77;13.57;;;25.50;93.20;;;;;;5091677;28;20519;-69
2023/06/23 02:06:36;;;;;;;34.33;15.25;;;25.50;93.20;;;;;;5094357;28;20043;-69
2023/06/23 02:09:41;;;;;;;29.45;15.18;;;25.50;93.00;;;;;;5093844;28;20059;-68
2023/06/23 02:12:47;;;;;;;25.75;14.40;;;25.50;93.10;;;;;;5094122;28;20495;-69
2023/06/23 02:15:53;;;;;;;31.48;16.63;;;25.40;93.30;;;;;;5092814;28;20075;-69
2023/06/23 02:18:58;;;;;;;26.52;15.73;;;25.50;93.00;;;;;;5094166;28;20043;-69
2023/06/23 02:22:03;;;;;;;29.30;16.33;;;25.40;93.40;;;;;;5093676;28;20043;-69
2023/06/23 02:25:07;;;;;;;27.95;16.98;;;25.30;93.30;;;;;;5093786;28;20047;-69
2023/06/23 02:28:12;;;;;;;25.48;16.92;;;25.40;93.30;;;;;;5093757;28;20043;-69
2023/06/23 02:31:22;;;;;;;26.33;15.88;;;25.30;93.30;;;;;;5093478;28;20039;-69
2023/06/23 02:34:26;;;;;;;29.02;17.27;;;25.30;93.50;;;;;;5093664;28;20047;-69
2023/06/23 02:37:32;;;;;;;28.83;17.10;;;25.30;93.40;;;;;;5093594;28;20510;-69
2023/06/23 02:40:39;;;;;;;26.63;16.92;;;25.10;94.00;;;;;;5092973;28;20043;-69
2023/06/23 02:43:54;;;;;;;30.30;17.88;;;25.00;94.10;;;;;;5092459;28;20396;-69
2023/06/23 02:47:02;;;;;;;26.05;18.40;;;25.00;94.10;;;;;;5092583;28;20055;-69
2023/06/23 02:50:11;;;;;;;29.88;18.88;;;25.10;94.10;;;;;;5093499;28;20051;-69
2023/06/23 02:53:25;;;;;;;30.92;19.55;;;25.00;94.40;;;;;;5092316;28;20055;-69
2023/06/23 02:56:32;;;;;;;30.38;18.80;;;25.00;94.30;;;;;;5093363;28;20051;-69
2023/06/23 02:59:38;;;;;;;29.67;18.60;;;24.90;94.40;;;;;;5092908;28;20058;-69
2023/06/23 03:02:43;;;;;;;30.73;19.17;;;24.90;94.50;;;;;;5093166;28;20396;-69
2023/06/23 03:05:49;;;;;;;24.08;18.92;;;24.90;94.60;;;;;;5091988;28;20063;-69
2023/06/23 03:08:53;;;;;;;28.60;18.95;;;24.90;94.60;;;;;;5092607;28;20047;-69
2023/06/23 03:11:57;;;;;;;29.90;19.33;;;24.90;94.70;;;;;;5092307;28;20043;-69
2023/06/23 03:15:02;;;;;;;32.42;20.27;;;24.80;94.60;;;;;;5092081;28;20055;-69
2023/06/23 03:18:20;;;;;;;30.25;19.52;;;24.80;94.60;;;;;;5092734;28;20043;-69
2023/06/23 03:21:28;;;;;;;;;;;24.90;94.60;;;;;;5093035;28;20043;-69
2023/06/23 03:24:37;;;;;;;31.40;19.58;;;24.80;94.70;;;;;;5091806;28;19919;-69
2023/06/23 03:27:43;;;;;;;33.58;20.02;;;24.70;95.00;;;;;;5092462;28;20047;-69
2023/06/23 03:30:56;;;;;;;30.02;20.70;;;24.80;95.00;;;;;;5091968;28;20410;-69
2023/06/23 03:34:01;;;;;;;34.13;20.73;;;24.80;95.00;;;;;;5091489;28;20502;-69
2023/06/23 03:37:07;;;;;;;38.55;22.05;;;24.80;94.90;;;;;;5092522;28;20051;-70
2023/06/23 03:40:14;;;;;;;34.00;21.45;;;24.80;95.00;;;;;;5092561;28;20062;-69
2023/06/23 03:43:23;;;;;;;31.05;21.75;;;24.80;94.90;;;;;;5092593;28;20047;-69
2023/06/23 03:46:34;;;;;;;35.55;21.92;;;24.70;95.30;;;;;;5092543;28;20102;-69
2023/06/23 03:49:46;;;;;;;42.85;21.33;;;24.60;95.50;;;;;;5091966;28;20050;-70
2023/06/23 03:52:56;;;;;;;36.08;21.85;;;24.60;95.40;;;;;;5092293;28;20387;-69
2023/06/23 03:56:03;;;;;;;33.83;20.73;;;24.50;95.80;;;;;;5091736;28;20056;-69
2023/06/23 03:59:10;;;;;;;35.35;21.15;;;24.60;95.70;;;;;;5092355;28;20047;-71
2023/06/23 04:02:20;;;;;;;36.45;21.65;;;24.50;95.80;;;;;;5092147;28;20046;-70
2023/06/23 04:05:28;;;;;;;32.53;20.60;;;24.50;95.80;;;;;;5092182;28;20522;-69
2023/06/23 04:08:34;;;;;;;30.48;20.95;;;24.60;95.70;;;;;;5091705;28;20051;-68
2023/06/23 04:11:39;;;;;;;26.88;19.35;;;24.70;95.60;;;;;;5092047;28;20043;-69
2023/06/23 04:14:47;;;;;;;33.42;21.42;;;24.70;95.70;;;;;;5090880;28;20039;-68
2023/06/23 04:17:54;;;;;;;29.38;20.35;;;24.70;95.40;;;;;;5092139;28;20046;-69
2023/06/23 04:21:00;;;;;;;32.13;19.88;;;24.60;95.50;;;;;;5091745;28;20055;-68
2023/06/23 04:24:08;;;;;;;28.35;20.65;;;24.60;95.80;;;;;;5092001;28;20039;-70
2023/06/23 04:27:14;;;;;;;34.85;20.95;;;24.70;95.60;;;;;;5091271;28;20047;-69
2023/06/23 04:30:21;;;;;;;36.70;21.00;;;24.70;95.60;;;;;;5092202;28;20043;-69
2023/06/23 04:33:26;;;;;;;36.53;23.17;;;24.60;95.60;;;;;;5091632;28;20043;-70
2023/06/23 04:36:40;;;;;;;34.78;21.33;;;24.50;95.90;;;;;;5091398;28;20075;-70
2023/06/23 04:40:01;;;;;;;33.08;21.17;;;24.60;96.00;;;;;;5091404;28;20043;-70
2023/06/23 04:43:13;;;;;;;31.23;20.95;;;24.70;95.80;;;;;;5090905;28;20070;-69
2023/06/23 04:46:27;;;;;;;32.05;20.38;;;24.90;95.70;;;;;;5091300;28;20197;-70
2023/06/23 04:49:33;;;;;;;36.85;19.98;;;25.00;95.70;;;;;;5091352;28;20086;-69
2023/06/23 04:52:43;;;;;;;33.55;20.08;;;25.10;95.40;;;;;;5091153;28;20039;-70
2023/06/23 04:55:52;;;;;;;38.22;19.38;;;25.30;95.10;;;;;;5091290;28;20403;-70
2023/06/23 04:59:02;;;;;;;30.00;17.15;;;25.40;94.80;;;;;;5089910;28;20047;-69
2023/06/23 05:02:07;;;;;;;35.88;19.95;;;25.50;94.10;;;;;;5090903;28;20043;-69
2023/06/23 05:05:14;;;;;;;73.00;23.40;;;25.60;94.20;;;;;;5090943;28;20396;-69
2023/06/23 05:08:19;;;;;;;58.67;21.00;;;25.60;94.90;;;;;;5090579;28;20040;-70
2023/06/23 05:11:24;;;;;;;47.30;21.80;;;25.70;94.70;;;;;;5089933;28;20400;-69
2023/06/23 05:14:30;;;;;;;50.00;22.73;;;25.90;94.40;;;;;;5090757;28;20047;-62
2023/06/23 05:17:37;;;;;;;69.50;22.80;;;25.70;94.50;;;;;;5090717;28;20507;-63
2023/06/23 05:20:43;;;;;;;72.43;23.30;;;25.60;94.60;;;;;;5090806;28;20043;-63
2023/06/23 05:23:49;;;;;;;57.75;22.75;;;25.70;94.60;;;;;;5090897;28;20043;-63
2023/06/23 05:26:59;;;;;;;73.55;22.85;;;25.70;94.60;;;;;;5091082;28;20407;-63
2023/06/23 05:30:07;;;;;;;86.53;23.67;;;25.70;94.40;;;;;;5090849;28;20060;-64
2023/06/23 05:33:13;;;;;;;58.55;24.55;;;25.70;94.60;;;;;;5090884;28;20047;-63
2023/06/23 05:36:20;;;;;;;124.60;28.00;;;25.90;94.80;;;;;;5090503;28;20051;-63
2023/06/23 05:39:27;;;;;;;59.75;24.70;;;25.90;94.30;;;;;;5094666;28;20043;-63
2023/06/23 05:42:34;;;;;;;59.85;23.88;;;26.10;93.80;;;;;;5094770;28;20404;-64
2023/06/23 05:45:38;;;;;;;56.88;24.08;;;26.20;93.80;;;;;;5093878;28;20039;-65
2023/06/23 05:48:51;;;;;;;42.03;23.27;;;26.30;93.90;;;;;;5094945;28;20047;-63
2023/06/23 05:51:59;;;;;;;32.15;19.92;;;26.50;94.00;;;;;;5094808;28;20042;-62
2023/06/23 05:55:05;;;;;;;31.83;20.15;;;26.60;94.00;;;;;;5094505;28;20511;-63
2023/06/23 05:58:12;;;;;;;34.25;21.23;;;26.70;94.20;;;;;;5095106;28;20055;-62
2023/06/23 06:01:21;;;;;;;32.00;19.35;;;26.80;94.20;;;;;;5094530;28;20047;-63
2023/06/23 06:04:29;;;;;;;39.33;22.33;;;26.90;94.30;;;;;;5093716;28;20514;-63
2023/06/23 06:07:35;;;;;;;44.58;23.08;;;27.00;93.80;;;;;;5094210;28;20047;-64
2023/06/23 06:10:42;;;;;;;44.97;23.27;;;27.00;93.60;;;;;;5094406;28;20051;-63
2023/06/23 06:13:49;;;;;;;45.05;24.15;;;27.20;93.80;;;;;;5094203;28;20051;-63
2023/06/23 06:16:55;;;;;;;33.83;23.42;;;27.30;93.30;;;;;;5093398;28;20059;-62
2023/06/23 06:20:02;;;;;;;35.05;21.95;;;27.30;93.10;;;;;;5091484;28;20055;-62
2023/06/23 06:23:08;;;;;;;54.83;21.35;;;27.50;93.20;;;;;;5093027;28;20047;-62
2023/06/23 06:26:14;;;;;;;41.75;22.67;;;27.60;92.40;;;;;;5093933;28;20062;-64
2023/06/23 06:29:19;;;;;;;38.00;20.50;;;27.60;92.50;;;;;;5093302;28;20407;-64
2023/06/23 06:32:25;;;;;;;36.03;22.10;;;27.70;92.40;;;;;;5093664;28;20396;-64
2023/06/23 06:35:31;;;;;;;31.20;20.23;;;27.70;92.40;;;;;;5093604;28;20411;-64
2023/06/23 06:38:37;;;;;;;41.45;20.90;;;27.70;91.80;;;;;;5093482;28;20044;-65
2023/06/23 06:41:44;;;;;;;34.50;19.00;;;27.70;91.60;;;;;;5093569;28;20051;-63
2023/06/23 06:44:52;;;;;;;;;;;27.60;92.00;;;;;;5093193;28;20055;-64
2023/06/23 06:47:58;;;;;;;34.55;19.38;;;27.60;92.10;;;;;;5093073;28;19915;-64
2023/06/23 06:51:02;;;;;;;25.77;17.48;;;27.60;91.90;;;;;;5092313;28;20039;-64
2023/06/23 06:54:07;;;;;;;23.85;17.08;;;27.70;91.80;;;;;;5093179;28;20043;-64
2023/06/23 06:57:11;;;;;;;36.45;18.17;;;27.80;91.70;;;;;;5093697;28;20093;-65
2023/06/23 07:00:22;;;;;;;22.23;14.63;;;28.00;91.50;;;;;;5093644;28;20031;-65
2023/06/23 07:03:27;;;;;;;24.70;13.63;;;28.00;91.10;;;;;;5093025;28;20039;-64
2023/06/23 07:06:31;;;;;;;19.20;13.63;;;28.00;90.50;;;;;;5092770;28;20039;-63
2023/06/23 07:09:35;;;;;;;16.92;12.75;;;28.10;90.50;;;;;;5092715;28;20063;-65
2023/06/23 07:12:39;;;;;;;29.27;13.35;;;28.20;90.20;;;;;;5093212;28;20043;-64
2023/06/23 07:15:43;;;;;;;21.65;12.27;;;28.20;90.10;;;;;;5093086;28;20502;-65
2023/06/23 07:18:47;;;;;;;29.98;13.98;;;28.20;89.80;;;;;;5092987;28;20072;-63
2023/06/23 07:21:51;;;;;;;36.88;15.02;;;28.20;90.30;;;;;;5092839;28;20056;-65
2023/06/23 07:24:55;;;;;;;30.60;13.57;;;28.20;90.40;;;;;;5092686;28;20075;-63
2023/06/23 07:28:00;;;;;;;24.67;13.90;;;28.10;90.40;;;;;;5092618;28;20047;-64
2023/06/23 07:31:04;;;;;;;25.42;13.18;;;28.10;90.80;;;;;;5092489;28;20622;-64
2023/06/23 07:34:08;;;;;;;24.70;11.43;;;28.20;90.70;;;;;;5092432;28;20039;-64
2023/06/23 07:37:12;;;;;;;23.85;12.27;;;28.20;90.50;;;;;;5092610;28;20039;-64
2023/06/23 07:40:16;;;;;;;30.70;12.48;;;28.30;90.80;;;;;;5092539;28;20106;-64
2023/06/23 07:43:20;;;;;;;32.60;12.35;;;28.50;90.70;;;;;;5092656;28;20035;-65
2023/06/23 07:46:24;;;;;;;28.50;12.20;;;28.80;90.00;;;;;;5092312;28;20397;-64
2023/06/23 07:49:27;;;;;;;20.50;11.77;;;29.10;89.90;;;;;;5092774;28;20043;-64
2023/06/23 07:52:31;;;;;;;26.73;11.65;;;29.40;89.20;;;;;;5092030;28;20047;-64
2023/06/23 07:55:35;;;;;;;19.48;11.40;;;29.70;87.70;;;;;;5091922;28;20063;-65
2023/06/23 07:58:39;;;;;;;24.35;12.23;;;30.10;86.90;;;;;;5091416;28;20047;-64
2023/06/23 08:01:43;;;;;;;21.17;10.52;;;30.30;87.00;;;;;;5091187;28;20399;-64
2023/06/23 08:04:47;;;;;;;18.65;9.65;;;30.50;85.60;;;;;;5092001;28;20055;-65
2023/06/23 08:07:51;;;;;;;17.35;10.00;;;30.80;85.00;;;;;;5092526;28;20062;-65
2023/06/23 08:10:55;;;;;;;18.75;9.88;;;31.00;84.10;;;;;;5092011;28;20051;-64
2023/06/23 08:14:03;;;;;;;22.02;10.32;;;31.10;81.90;;;;;;5090876;28;20535;-64
2023/06/23 08:17:06;;;;;;;16.83;9.02;;;31.30;79.90;;;;;;5091716;28;20051;-64
2023/06/23 08:20:11;;;;;;;16.77;8.77;;;31.30;80.60;;;;;;5092051;28;20047;-64
2023/06/23 08:23:15;;;;;;;16.95;7.85;;;31.50;78.40;;;;;;5091926;28;20376;-64
2023/06/23 08:26:19;;;;;;;14.30;8.65;;;31.80;77.90;;;;;;5092089;28;20039;-63
2023/06/23 08:29:23;;;;;;;18.08;7.97;;;32.10;77.30;;;;;;5091694;28;20051;-65
2023/06/23 08:32:27;;;;;;;17.25;8.20;;;32.20;76.80;;;;;;5091641;28;20094;-63
2023/06/23 08:35:31;;;;;;;9.23;6.53;;;32.20;73.80;;;;;;5088078;28;20066;-64
2023/06/23 08:38:36;;;;;;;11.77;6.97;;;32.30;73.60;;;;;;5089714;28;20043;-63
2023/06/23 08:41:43;;;;;;;10.15;6.30;;;32.50;71.50;;;;;;5089998;28;20054;-63
2023/06/23 08:44:49;;;;;;;10.07;6.30;;;32.70;70.60;;;;;;5090257;28;20043;-63
2023/06/23 08:47:59;;;;;;;12.68;6.80;;;32.90;70.90;;;;;;5090705;28;20110;-64
2023/06/23 08:51:03;;;;;;;12.50;7.07;;;33.20;71.70;;;;;;5091194;28;20064;-63
2023/06/23 08:54:08;;;;;;;14.23;7.22;;;33.40;71.30;;;;;;5091276;28;20400;-63
2023/06/23 08:57:12;;;;;;;21.60;8.35;;;33.40;69.80;;;;;;5090737;28;20403;-65
2023/06/23 09:00:17;;;;;;;20.60;9.20;;;34.70;70.20;;;;;;5090991;28;20035;-64
2023/06/23 09:03:22;;;;;;;15.68;8.73;;;36.10;69.40;;;;;;5091277;28;20043;-62
2023/06/23 09:06:26;;;;;;;22.88;10.50;;;37.00;67.70;;;;;;5091054;28;20046;-62
2023/06/23 09:09:30;;;;;;;18.17;8.43;;;37.50;67.10;;;;;;5090486;28;20059;-63
2023/06/23 09:12:34;;;;;;;18.55;7.70;;;38.00;65.20;;;;;;5090470;28;20059;-62
2023/06/23 09:15:38;;;;;;;27.27;8.13;;;38.30;61.70;;;;;;5090289;28;20055;-63
2023/06/23 09:18:46;;;;;;;19.02;8.13;;;38.20;61.50;;;;;;5090399;28;20502;-62
2023/06/23 09:21:51;;;;;;;20.15;6.60;;;38.20;61.10;;;;;;5090600;28;20047;-64
2023/06/23 09:24:56;;;;;;;21.30;7.70;;;38.50;60.20;;;;;;5090610;28;20054;-63
2023/06/23 09:28:00;;;;;;;17.35;5.95;;;38.70;59.70;;;;;;5090706;28;20047;-63
2023/06/23 09:31:13;;;;;;;16.40;6.57;;;38.90;59.70;;;;;;5090627;28;20043;-66
2023/06/23 09:34:29;;;;;;;14.18;6.75;;;38.80;59.00;;;;;;5089763;28;20043;-66
2023/06/23 09:37:36;;;;;;;15.70;6.65;;;38.40;60.00;;;;;;5090559;28;20404;-65
2023/06/23 09:40:40;;;;;;;14.60;5.53;;;38.40;60.60;;;;;;5090788;28;20043;-64
2023/06/23 09:43:52;;;;;;;9.98;3.42;;;38.80;55.70;;;;;;5090532;28;20517;-64
2023/06/23 09:47:03;;;;;;;15.73;3.72;;;39.00;49.70;;;;;;5090688;28;20046;-63
2023/06/23 09:50:15;;;;;;;6.85;3.92;;;39.30;48.20;;;;;;5090687;28;20498;-62
2023/06/23 09:53:20;;;;;;;8.38;4.60;;;39.40;50.30;;;;;;5090553;28;20039;-64
2023/06/23 09:56:24;;;;;;;15.27;6.32;;;39.10;51.70;;;;;;5090092;28;20055;-64
2023/06/23 09:59:30;;;;;;;14.73;6.53;;;39.00;55.80;;;;;;5090451;28;20067;-64
2023/06/23 10:02:41;;;;;;;16.50;6.97;;;39.00;57.30;;;;;;5089626;28;20063;-65
2023/06/23 10:05:44;;;;;;;33.80;7.80;;;39.20;57.50;;;;;;5090404;28;20044;-62
2023/06/23 10:08:51;;;;;;;23.83;7.82;;;39.30;56.70;;;;;;5090148;28;20055;-63
2023/06/23 10:11:55;;;;;;;14.88;6.68;;;39.00;57.10;;;;;;5090176;28;20047;-62
2023/06/23 10:14:59;;;;;;;47.40;7.82;;;39.10;55.80;;;;;;5090355;28;20043;-62
2023/06/23 10:18:04;;;;;;;29.90;6.97;;;39.20;54.00;;;;;;5090584;28;20051;-61
2023/06/23 10:21:08;;;;;;;15.80;5.72;;;39.50;53.80;;;;;;5089510;28;20042;-63
2023/06/23 10:24:18;;;;;;;9.32;5.20;;;38.80;54.30;;;;;;5091766;28;20137;-63
2023/06/23 10:27:29;;;;;;;10.52;4.63;;;38.20;54.80;;;;;;5093844;28;20047;-64
2023/06/23 10:30:33;;;;;;;5.90;4.57;;;37.80;54.90;;;;;;5094022;28;20039;-64
2023/06/23 10:33:38;;;;;;;10.82;4.78;;;37.50;54.80;;;;;;5093622;28;20039;-63
2023/06/23 10:36:46;;;;;;;8.45;4.68;;;37.30;55.10;;;;;;5093445;28;20055;-65
2023/06/23 10:40:03;;;;;;;13.45;4.25;;;37.00;54.60;;;;;;5093319;28;20039;-64
2023/06/23 10:43:10;;;;;;;13.50;3.97;;;36.90;54.60;;;;;;5092564;28;20062;-63
2023/06/23 10:46:14;;;;;;;13.13;5.18;;;36.70;53.70;;;;;;5091439;28;20483;-64
2023/06/23 10:49:19;;;;;;;8.77;4.13;;;36.50;53.50;;;;;;5091843;28;20047;-64
2023/06/23 10:52:23;;;;;;;6.38;4.15;;;36.40;53.90;;;;;;5092862;28;20047;-64
2023/06/23 10:55:34;;;;;;;10.93;4.20;;;36.20;54.90;;;;;;5093290;28;20412;-63
2023/06/23 10:58:51;;;;;;;7.28;4.65;;;36.00;56.10;;;;;;5093250;28;20047;-64
2023/06/23 11:02:01;;;;;;;10.95;4.88;;;35.90;57.60;;;;;;5093324;28;20518;-64
2023/06/23 11:05:05;;;;;;;7.88;4.60;;;35.80;57.10;;;;;;5092792;28;20039;-63
2023/06/23 11:08:12;;;;;;;10.15;5.10;;;35.70;58.00;;;;;;5092978;28;20051;-63
2023/06/23 11:11:16;;;;;;;14.52;4.78;;;35.60;58.40;;;;;;5093004;28;20047;-64
2023/06/23 11:14:20;;;;;;;8.95;4.47;;;35.50;58.80;;;;;;5092093;28;20043;-64
2023/06/23 11:17:24;;;;;;;8.43;4.45;;;35.40;58.00;;;;;;5092742;28;20055;-64
2023/06/23 11:20:29;;;;;;;14.00;5.10;;;35.30;58.50;;;;;;5092623;28;20043;-64
2023/06/23 11:23:33;;;;;;;7.40;4.88;;;35.20;58.30;;;;;;5092662;28;20051;-64
2023/06/23 11:26:52;;;;;;;14.43;6.03;;;35.10;59.30;;;;;;5092574;28;20530;-64
2023/06/23 11:30:18;;;;;;;6.90;4.95;;;35.00;58.60;;;;;;5092511;28;20047;-64
2023/06/23 11:33:30;;;;;;;13.88;4.78;;;35.00;58.50;;;;;;5092525;28;20035;-63
2023/06/23 11:36:34;;;;;;;10.75;4.70;;;35.00;58.10;;;;;;5092350;28;20047;-63
2023/06/23 11:39:38;;;;;;;14.50;5.50;;;34.90;59.10;;;;;;5092611;28;20043;-63
2023/06/23 11:42:46;;;;;;;18.33;5.22;;;34.90;59.90;;;;;;5092465;28;20055;-64
2023/06/23 11:46:11;;;;;;;9.60;3.95;;;34.90;58.50;;;;;;5092362;28;20044;-65
2023/06/23 11:49:15;;;;;;;7.70;4.35;;;34.70;57.10;;;;;;5092749;28;20063;-63
2023/06/23 11:52:20;;;;;;;11.07;5.00;;;34.70;57.10;;;;;;5092126;28;20043;-65
2023/06/23 11:55:27;;;;;;;7.17;4.53;;;34.70;56.50;;;;;;5092371;28;20043;-64
2023/06/23 11:58:32;;;;;;;11.98;4.15;;;34.70;57.70;;;;;;5092170;28;20051;-65
2023/06/23 12:01:36;;;;;;;8.48;4.50;;;34.60;57.30;;;;;;5091990;28;20043;-64
2023/06/23 12:04:41;;;;;;;11.88;4.57;;;34.60;57.10;;;;;;5091722;28;20047;-64
2023/06/23 12:07:45;;;;;;;20.30;5.43;;;34.60;57.40;;;;;;5091828;28;20047;-64
2023/06/23 12:10:51;;;;;;;11.63;3.80;;;34.50;56.50;;;;;;5092104;28;20058;-65
2023/06/23 12:13:55;;;;;;;5.55;3.60;;;34.40;52.70;;;;;;5091922;28;20039;-64
2023/06/23 12:17:10;;;;;;;8.23;4.20;;;34.30;56.20;;;;;;5091538;28;20173;-63
2023/06/23 12:20:18;;;;;;;12.20;4.35;;;34.40;56.80;;;;;;5092007;28;20407;-64
2023/06/23 12:23:22;;;;;;;12.73;4.70;;;34.30;57.10;;;;;;5091451;28;20415;-64
2023/06/23 12:26:26;;;;;;;18.52;4.40;;;34.30;56.70;;;;;;5090765;28;20491;-63
2023/06/23 12:29:31;;;;;;;13.88;5.22;;;34.20;57.50;;;;;;5091838;28;20534;-63
2023/06/23 12:32:39;;;;;;;9.88;4.82;;;34.00;58.60;;;;;;5090744;28;20047;-62
2023/06/23 12:36:05;;;;;;;9.02;4.63;;;34.00;58.80;;;;;;5091504;28;20047;-63
2023/06/23 12:39:12;;;;;;;19.52;6.00;;;33.90;59.10;;;;;;5091429;28;20055;-62
2023/06/23 12:42:16;;;;;;;8.23;4.45;;;33.80;60.40;;;;;;5091712;28;20043;-62
2023/06/23 12:45:24;;;;;;;11.68;4.88;;;33.70;61.00;;;;;;5091420;28;20285;-65
2023/06/23 12:48:28;;;;;;;4.93;3.60;;;33.60;62.00;;;;;;5091394;28;20511;-64
2023/06/23 12:51:32;;;;;;;12.50;4.15;;;33.60;59.80;;;;;;5091253;28;20146;-64
2023/06/23 12:54:36;;;;;;;8.98;4.10;;;33.50;61.50;;;;;;5091181;28;20106;-63
2023/06/23 12:57:44;;;;;;;10.82;3.90;;;33.50;62.30;;;;;;5090724;28;20411;-64
2023/06/23 13:00:48;;;;;;;7.32;4.45;;;33.40;64.40;;;;;;5090211;28;20051;-62
2023/06/23 13:03:52;;;;;;;9.05;3.85;;;33.20;65.60;;;;;;5091128;28;20047;-62
2023/06/23 13:06:56;;;;;;;16.30;4.50;;;33.20;65.80;;;;;;5091176;28;20047;-61
2023/06/23 13:10:00;;;;;;;8.20;3.80;;;33.10;66.40;;;;;;5090634;28;20063;-63
2023/06/23 13:13:04;;;;;;;6.78;3.78;;;33.10;67.90;;;;;;5090913;28;20035;-64
2023/06/23 13:16:08;;;;;;;23.08;4.10;;;33.80;66.90;;;;;;5090707;28;20055;-63
2023/06/23 13:19:13;;;;;;;15.38;3.72;;;34.70;65.60;;;;;;5090814;28;20035;-64
2023/06/23 13:22:16;;;;;;;15.15;3.65;;;35.30;63.60;;;;;;5090829;28;20066;-63
2023/06/23 13:25:21;;;;;;;7.65;3.45;;;35.40;63.70;;;;;;5090857;28;20039;-62
2023/06/23 13:28:24;;;;;;;12.68;3.85;;;35.20;64.30;;;;;;5091023;28;20217;-62
2023/06/23 13:31:29;;;;;;;11.82;3.30;;;35.30;63.00;;;;;;5089959;28;20051;-62
2023/06/23 13:34:35;;;;;;;7.65;3.40;;;35.40;62.70;;;;;;5088530;28;20051;-63
2023/06/23 13:37:39;;;;;;;7.22;4.13;;;35.10;62.40;;;;;;5087849;28;20059;-63
2023/06/23 13:40:43;;;;;;;6.40;3.60;;;34.70;61.10;;;;;;5089364;28;20043;-63
2023/06/23 13:43:47;;;;;;;12.70;3.90;;;34.30;63.20;;;;;;5089445;28;20050;-63
2023/06/23 13:46:51;;;;;;;5.30;3.22;;;33.90;62.90;;;;;;5089471;28;20051;-63
2023/06/23 13:49:57;;;;;;;5.65;3.10;;;33.60;63.80;;;;;;5090174;28;20502;-63
2023/06/23 13:53:01;;;;;;;9.27;3.22;;;33.40;60.80;;;;;;5090181;28;20502;-63
2023/06/23 13:56:05;;;;;;;5.18;3.17;;;33.30;61.90;;;;;;5090460;28;20047;-64
2023/06/23 13:59:09;;;;;;;12.57;3.38;;;33.20;64.50;;;;;;5092701;28;20051;-62
2023/06/23 14:02:13;;;;;;;9.93;3.20;;;33.00;65.90;;;;;;5094746;28;20127;-62
2023/06/23 14:05:18;;;;;;;8.63;3.08;;;33.00;64.30;;;;;;5094423;28;20121;-64
2023/06/23 14:08:21;;;;;;;7.00;3.08;;;32.90;67.50;;;;;;5093989;28;20035;-63
2023/06/23 14:11:26;;;;;;;13.48;4.00;;;32.80;70.30;;;;;;5094539;28;20051;-64
2023/06/23 14:14:30;;;;;;;9.73;3.30;;;32.70;71.40;;;;;;5094374;28;20384;-63
2023/06/23 14:17:34;;;;;;;17.40;3.55;;;32.60;72.40;;;;;;5094337;28;20047;-64
2023/06/23 14:20:38;;;;;;;6.28;3.53;;;32.60;72.50;;;;;;5094127;28;20131;-62
2023/06/23 14:23:42;;;;;;;3.58;3.15;;;32.50;71.70;;;;;;5093992;28;20051;-64
2023/06/23 14:26:46;;;;;;;11.77;3.25;;;32.50;70.70;;;;;;5093839;28;20534;-64
2023/06/23 14:29:50;;;;;;;8.48;3.90;;;32.40;71.80;;;;;;5094276;28;20059;-63
2023/06/23 14:32:55;;;;;;;14.07;3.67;;;32.30;72.30;;;;;;5093990;28;20039;-63
2023/06/23 14:35:59;;;;;;;11.25;3.20;;;32.30;73.30;;;;;;5093874;28;20396;-63
2023/06/23 14:39:03;;;;;;;11.85;4.03;;;32.30;73.30;;;;;;5093827;28;20043;-63
2023/06/23 14:42:07;;;;;;;11.00;3.58;;;32.30;74.80;;;;;;5093471;28;20047;-63
2023/06/23 14:45:11;;;;;;;16.75;4.10;;;32.20;73.90;;;;;;5093360;28;20067;-63
2023/06/23 14:48:15;;;;;;;10.85;3.63;;;32.20;74.20;;;;;;5093048;28;20062;-62
2023/06/23 14:51:20;;;;;;;13.32;4.05;;;32.20;74.50;;;;;;5092278;28;20039;-61
2023/06/23 14:54:25;;;;;;;10.02;4.05;;;32.10;74.10;;;;;;5092490;28;20047;-62
2023/06/23 14:57:29;;;;;;;6.90;3.90;;;32.10;73.90;;;;;;5092199;28;20047;-63
2023/06/23 15:00:34;;;;;;;16.45;4.32;;;32.00;75.30;;;;;;5093094;28;20075;-64
2023/06/23 15:03:38;;;;;;;19.95;4.20;;;31.90;73.70;;;;;;5093107;28;20510;-63
2023/06/23 15:06:42;;;;;;;16.10;4.82;;;31.90;74.10;;;;;;5093284;28;20051;-63
2023/06/23 15:09:46;;;;;;;7.90;3.60;;;31.80;76.90;;;;;;5092378;28;20058;-62
2023/06/23 15:12:50;;;;;;;9.25;4.20;;;31.80;76.10;;;;;;5092701;28;20047;-63
2023/06/23 15:15:54;;;;;;;9.95;4.03;;;31.70;76.10;;;;;;5092118;28;20047;-65
2023/06/23 15:18:58;;;;;;;17.65;4.50;;;31.70;78.60;;;;;;5093196;28;20051;-64
2023/06/23 15:22:03;;;;;;;10.60;4.07;;;31.50;78.70;;;;;;5092710;28;20047;-64
2023/06/23 15:25:08;;;;;;;15.20;5.45;;;31.50;77.90;;;;;;5092449;28;20519;-62
2023/06/23 15:28:28;;;;;;;14.77;4.20;;;31.40;77.20;;;;;;5093004;28;20062;-62
2023/06/23 15:31:32;;;;;;;21.67;5.32;;;31.30;78.80;;;;;;5092653;28;20047;-62
2023/06/23 15:34:37;;;;;;;11.48;4.55;;;31.30;78.00;;;;;;5092384;28;20079;-62
2023/06/23 15:37:41;;;;;;;10.43;4.03;;;31.40;77.50;;;;;;5092489;28;20332;-62
2023/06/23 15:40:45;;;;;;;7.03;3.70;;;32.30;77.00;;;;;;5092376;28;20534;-63
2023/06/23 15:43:49;;;;;;;17.27;4.10;;;33.30;75.40;;;;;;5092218;28;20395;-62
2023/06/23 15:46:53;;;;;;;10.82;4.38;;;34.10;73.90;;;;;;5092232;28;20043;-61
2023/06/23 15:49:57;;;;;;;9.57;3.90;;;34.50;73.70;;;;;;5091788;28;20047;-62
2023/06/23 15:53:01;;;;;;;22.17;4.45;;;34.60;74.40;;;;;;5092403;28;20051;-64
2023/06/23 15:56:05;;;;;;;7.63;3.42;;;34.30;73.10;;;;;;5091928;28;20067;-63